Amidon, ND (58620)

7:07 AM MDT on September 22, 2014 (GMT -0600)
RAWS SAND CREEK ND US | Change Station
CLOSE
Current Station
Personal Weather Station
Location: Amidon, ND
Elevation: 2748 ft
Nearby Weather Stations

Elev 2748 ft 46.55 °N, 103.52 °W | Updated 37 minutes ago

Clear
Clear
45 °F
Feels Like 42 °F
N
5
Wind Variable Wind from SSW
Gusts 9.0 mph

Today
High -- | Low -- °F
--% Chance of Precip.
Yesterday
High -- | Low -- °F
Precip. -- in
6:40 AM 6:50 PM
Waning Crescent, 3% visible
Pressure 30.06 in
Visibility 10.0 miles
Clouds Clear
Windchill 42 °F
Dew Point 38 °F
Humidity 75%
Rainfall 0.00 in
Snow Depth Not available.
UV 0 out of 12
Pollen 4.10 out of 12
Air Quality Not available.
Flu Activity Not available.
METAR KDIK 221256Z AUTO 17010KT 10SM CLR 08/04 A3006 RMK AO2 SLP177 T00830039

More Conditions Fewer Conditions

Pressure 30.06 in
Visibility 10.0 miles
Clouds Clear
Windchill 42 °F
Dew Point 38 °F
Humidity 75%
Rainfall 0.00 in
Snow Depth Not available.
UV 0 out of 12
Pollen 4.10 out of 12
Air Quality Not available.
Flu Activity Not available.
METAR KDIK 221256Z AUTO 17010KT 10SM CLR 08/04 A3006 RMK AO2 SLP177 T00830039

More Conditions Fewer Conditions

10-Day Weather Forecast

Almanac

Astronomy

Sep. 22, 2014 Rise Set
Actual Time 6:40 AM MDT 6:50 PM MDT
Civil Twilight 6:10 AM MDT 7:20 PM MDT
Nautical Twilight 5:34 AM MDT 7:56 PM MDT
Astronomical Twilight 4:58 AM MDT 8:32 PM MDT
Moon 5:07 AM MDT 6:01 PM MDT
Length of Visible Light 13h 10m
Length of Day
12h 10m
Tomorrow will be 3m 18s shorter.
Waning Crescent, 3% of the Moon is Illuminated
Today
Waning Crescent
Sep 24
New
Oct 1
First Quarter
Oct 8
Full
Oct 15
Last Quarter

Today's Extremes

State Highs State Lows

Community

WunderPhotos

Upload Photos

1,755,419 photos uploaded!

Nearby

Snow Depth

Station Depth Elevation
No new snow has been reported.

Earthquake Activity

City Distance Mag. Time & Date
No recent earthquake activity has been reported nearby.
Minimum magnitude displayed is 2.5.

Coastal Water Temperatures

Place Temperature
No Stations Reporting

Nearby Weather Stations